createdAt,value
2023-02-05T00:00:35.481Z,8.13
2023-02-05T00:05:37.232Z,14.67
2023-02-05T00:10:45.730Z,8.57
2023-02-05T00:15:47.600Z,9.87
2023-02-05T00:20:49.305Z,10.47
2023-02-05T00:25:51.035Z,8.33
2023-02-05T00:30:53.881Z,8.67
2023-02-05T00:35:58.351Z,10.70
2023-02-05T00:41:02.492Z,9.87
2023-02-05T00:46:10.410Z,7.80
2023-02-05T00:51:16.808Z,8.73
2023-02-05T00:56:22.975Z,8.63
2023-02-05T01:01:25.023Z,9.57
2023-02-05T01:06:32.129Z,10.93
2023-02-05T01:11:35.618Z,8.77
2023-02-05T01:16:40.590Z,8.13
2023-02-05T01:21:44.642Z,11.57
2023-02-05T01:26:48.933Z,13.13
2023-02-05T01:31:51.923Z,9.80
2023-02-05T01:36:53.657Z,7.90
2023-02-05T01:41:57.843Z,9.60
2023-02-05T01:46:59.513Z,9.23
2023-02-05T01:52:05.138Z,8.17
2023-02-05T01:57:13.668Z,8.53
2023-02-05T02:02:20.910Z,9.00
2023-02-05T02:07:35.192Z,9.13
2023-02-05T02:12:41.529Z,9.57
2023-02-05T02:17:47.948Z,9.87
2023-02-05T02:22:54.806Z,8.77
2023-02-05T02:28:09.575Z,8.40
2023-02-05T02:33:35.668Z,8.47
2023-02-05T02:38:49.077Z,10.87
2023-02-05T02:43:59.217Z,8.50
2023-02-05T02:49:04.185Z,9.13
2023-02-05T02:54:08.587Z,10.70
2023-02-05T02:59:25.357Z,9.30
2023-02-05T03:04:33.340Z,11.77
2023-02-05T03:09:51.551Z,9.17
2023-02-05T03:14:54.735Z,7.67
2023-02-05T03:20:02.424Z,9.10
2023-02-05T03:25:08.544Z,9.20
2023-02-05T03:30:11.223Z,10.60
2023-02-05T03:35:21.296Z,9.27
2023-02-05T03:40:37.020Z,9.27
2023-02-05T03:46:21.130Z,10.97
2023-02-05T03:51:23.498Z,9.17
2023-02-05T03:56:34.167Z,11.17
2023-02-05T04:01:36.760Z,10.67
2023-02-05T04:06:42.044Z,11.57
2023-02-05T04:11:47.275Z,13.30
2023-02-05T04:16:52.766Z,15.03
2023-02-05T04:22:00.078Z,10.37
2023-02-05T04:27:10.357Z,11.60
2023-02-05T04:32:19.898Z,19.30
2023-02-05T04:37:25.030Z,12.50
2023-02-05T04:42:26.971Z,12.53
2023-02-05T04:47:32.642Z,18.50
2023-02-05T04:52:36.866Z,21.80
2023-02-05T04:57:44.960Z,16.27
2023-02-05T05:02:49.193Z,16.33
2023-02-05T05:07:50.906Z,16.07
2023-02-05T05:12:54.898Z,22.43
2023-02-05T05:17:56.600Z,17.73
2023-02-05T05:22:58.295Z,24.07
2023-02-05T05:28:00.077Z,20.67
2023-02-05T05:33:02.850Z,21.47
2023-02-05T05:38:07.016Z,19.57
2023-02-05T05:43:32.096Z,21.60
2023-02-05T05:48:35.394Z,22.23
2023-02-05T05:53:39.480Z,23.57
2023-02-05T05:58:44.584Z,23.43
2023-02-05T06:03:46.327Z,23.73
2023-02-05T06:08:48.571Z,23.93
2023-02-05T06:13:50.338Z,25.07
2023-02-05T06:18:55.440Z,30.23
2023-02-05T06:24:05.053Z,28.10
2023-02-05T06:29:11.705Z,33.47
2023-02-05T06:34:15.703Z,33.17
2023-02-05T06:39:24.918Z,32.50
2023-02-05T06:44:29.551Z,36.43
2023-02-05T06:49:31.233Z,35.73
2023-02-05T06:54:35.385Z,43.43
2023-02-05T06:59:41.376Z,37.50
2023-02-05T07:04:46.065Z,34.20
2023-02-05T07:09:47.930Z,35.57
2023-02-05T07:14:54.369Z,38.83
2023-02-05T07:20:01.188Z,44.93
2023-02-05T07:25:04.955Z,40.03
2023-02-05T07:30:09.353Z,46.13
2023-02-05T07:35:13.361Z,46.50
2023-02-05T07:40:15.251Z,40.33
2023-02-05T07:45:17.286Z,42.97
2023-02-05T07:50:21.062Z,37.83
2023-02-05T07:55:25.046Z,49.13
2023-02-05T08:00:29.023Z,50.07
2023-02-05T08:05:31.919Z,37.73
2023-02-05T08:10:34.365Z,39.40
2023-02-05T08:15:39.236Z,38.73
2023-02-05T08:20:43.924Z,39.43
2023-02-05T08:25:45.684Z,40.30
2023-02-05T08:30:47.503Z,33.47
2023-02-05T08:35:51.298Z,33.13
2023-02-05T08:40:55.511Z,31.90
2023-02-05T08:45:57.332Z,43.63
2023-02-05T08:51:03.850Z,37.40
2023-02-05T08:56:10.544Z,41.77
2023-02-05T09:01:17.329Z,40.47
2023-02-05T09:06:23.203Z,34.53
2023-02-05T09:11:28.190Z,32.87
2023-02-05T09:16:29.987Z,38.58
2023-02-05T09:21:31.959Z,29.93
2023-02-05T09:26:33.804Z,32.07
2023-02-05T09:31:42.964Z,42.10
2023-02-05T09:36:47.260Z,29.57
2023-02-05T09:42:06.792Z,37.30
2023-02-05T09:47:21.595Z,38.27
2023-02-05T09:52:33.733Z,45.13
2023-02-05T09:57:37.715Z,77.70
2023-02-05T10:02:50.910Z,66.40
2023-02-05T10:08:28.072Z,79.20
2023-02-05T10:13:43.776Z,61.80
2023-02-05T10:18:56.604Z,61.70
2023-02-05T10:24:04.341Z,48.53
2023-02-05T10:29:37.323Z,53.97
2023-02-05T10:34:49.149Z,53.50
2023-02-05T10:39:53.999Z,45.27
2023-02-05T10:45:01.737Z,31.07
2023-02-05T10:50:18.747Z,35.70
2023-02-05T10:55:23.098Z,15.30
2023-02-05T11:00:25.368Z,13.10
2023-02-05T11:05:37.148Z,23.97
2023-02-05T11:10:44.360Z,24.20
2023-02-05T11:15:56.762Z,28.07
2023-02-05T11:21:06.061Z,22.60
2023-02-05T11:26:15.329Z,28.10
2023-02-05T11:31:33.356Z,19.00
2023-02-05T11:36:49.147Z,27.13
2023-02-05T11:41:56.416Z,39.13
2023-02-05T11:47:01.907Z,39.43
2023-02-05T11:52:13.498Z,29.47
2023-02-05T11:57:17.656Z,46.57
2023-02-05T12:02:31.090Z,31.60
2023-02-05T12:07:41.758Z,31.67
2023-02-05T12:13:02.220Z,56.90
2023-02-05T12:18:24.543Z,39.30
2023-02-05T12:23:31.690Z,58.27
2023-02-05T12:28:45.893Z,43.10
2023-02-05T12:34:18.076Z,40.43
2023-02-05T12:39:25.730Z,36.50
2023-02-05T12:44:37.740Z,52.10
2023-02-05T12:49:47.796Z,43.07
2023-02-05T12:54:52.448Z,46.57
2023-02-05T13:00:01.004Z,34.93
2023-02-05T13:05:15.253Z,41.27
2023-02-05T13:10:24.835Z,29.67
2023-02-05T13:15:31.214Z,39.20
2023-02-05T13:20:56.731Z,27.80
2023-02-05T13:26:18.110Z,42.43
2023-02-05T13:31:30.903Z,40.43
2023-02-05T13:36:39.768Z,38.73
2023-02-05T13:41:55.870Z,36.27
2023-02-05T13:46:58.415Z,40.83
2023-02-05T13:52:09.432Z,53.33
2023-02-05T13:57:26.270Z,38.17
2023-02-05T14:02:33.633Z,49.53
2023-02-05T14:07:39.513Z,48.87
2023-02-05T14:12:41.381Z,41.50
2023-02-05T14:17:47.853Z,36.43
2023-02-05T14:22:51.786Z,38.53
2023-02-05T14:27:56.803Z,36.40
2023-02-05T14:33:03.846Z,37.93
2023-02-05T14:38:31.556Z,45.47
2023-02-05T14:43:41.037Z,37.67
2023-02-05T14:48:43.416Z,37.97
2023-02-05T14:53:59.402Z,44.30
2023-02-05T14:59:07.308Z,34.80
2023-02-05T15:04:24.562Z,37.33
2023-02-05T15:09:38.217Z,38.83
2023-02-05T15:14:43.670Z,39.27
2023-02-05T15:19:53.225Z,41.13
2023-02-05T15:25:00.016Z,36.53
2023-02-05T15:30:08.549Z,42.00
2023-02-05T15:35:19.100Z,44.70
2023-02-05T15:40:25.446Z,42.73
2023-02-05T15:45:33.724Z,39.93
2023-02-05T15:50:48.853Z,46.50
2023-02-05T15:55:51.437Z,46.22
2023-02-05T16:00:56.649Z,40.33
2023-02-05T16:06:04.083Z,36.37
2023-02-05T16:11:07.156Z,44.97
2023-02-05T16:16:19.654Z,29.07
2023-02-05T16:21:30.602Z,41.30
2023-02-05T16:26:41.694Z,40.47
2023-02-05T16:31:43.550Z,42.00
2023-02-05T16:36:50.210Z,37.13
2023-02-05T16:42:14.692Z,39.20
2023-02-05T16:47:21.864Z,39.30
2023-02-05T16:52:32.129Z,40.10
2023-02-05T16:57:38.937Z,46.97
2023-02-05T17:02:41.414Z,49.37
2023-02-05T17:07:43.138Z,43.40
2023-02-05T17:13:09.627Z,47.03
2023-02-05T17:18:28.298Z,55.07
2023-02-05T17:23:32.483Z,44.17
2023-02-05T17:28:43.881Z,53.50
2023-02-05T17:33:53.687Z,51.93
2023-02-05T17:38:57.707Z,53.53
2023-02-05T17:44:02.446Z,56.03
2023-02-05T17:49:04.274Z,42.20
2023-02-05T17:54:16.448Z,47.07
2023-02-05T17:59:22.636Z,47.90
2023-02-05T18:04:24.900Z,40.83
2023-02-05T18:09:28.979Z,52.93
2023-02-05T18:14:33.055Z,32.37
2023-02-05T18:19:37.366Z,45.30
2023-02-05T18:24:40.547Z,43.87
2023-02-05T18:29:43.900Z,44.83
2023-02-05T18:34:46.044Z,48.40
2023-02-05T18:39:48.110Z,58.40
2023-02-05T18:44:52.053Z,47.87
2023-02-05T18:49:54.595Z,39.87
2023-02-05T18:54:58.695Z,46.20
2023-02-05T19:00:05.060Z,48.13
2023-02-05T19:05:08.358Z,55.60
2023-02-05T19:10:16.014Z,57.33
2023-02-05T19:15:21.902Z,52.57
2023-02-05T19:20:24.610Z,48.97
2023-02-05T19:25:26.536Z,42.27
2023-02-05T19:30:28.405Z,41.10
2023-02-05T19:35:32.575Z,52.80
2023-02-05T19:40:35.267Z,56.90
2023-02-05T19:45:37.611Z,48.10
2023-02-05T19:50:40.146Z,46.07
2023-02-05T19:55:41.839Z,46.03
2023-02-05T20:00:44.634Z,54.77
2023-02-05T20:05:49.426Z,50.77
2023-02-05T20:11:01.806Z,63.07
2023-02-05T20:16:16.736Z,56.10
2023-02-05T20:21:21.047Z,47.13
2023-02-05T20:26:26.521Z,58.90
2023-02-05T20:31:37.780Z,47.23
2023-02-05T20:36:41.785Z,55.27
2023-02-05T20:41:49.761Z,51.37
2023-02-05T20:46:56.228Z,64.20
2023-02-05T20:52:01.323Z,46.97
2023-02-05T20:57:05.588Z,53.73
2023-02-05T21:02:10.657Z,51.07
2023-02-05T21:07:14.939Z,58.37
2023-02-05T21:12:16.888Z,57.57
2023-02-05T21:17:18.636Z,65.53
2023-02-05T21:22:20.420Z,61.67
2023-02-05T21:27:25.464Z,56.63
2023-02-05T21:32:30.652Z,43.27
2023-02-05T21:37:32.548Z,51.37
2023-02-05T21:42:40.454Z,55.60
2023-02-05T21:47:44.340Z,46.17
2023-02-05T21:52:46.022Z,65.57
2023-02-05T21:57:48.066Z,52.17
2023-02-05T22:02:52.055Z,39.87
2023-02-05T22:07:53.706Z,49.43
2023-02-05T22:12:55.383Z,48.00
2023-02-05T22:17:59.354Z,52.10
2023-02-05T22:23:03.043Z,62.33
2023-02-05T22:28:05.044Z,47.43
2023-02-05T22:33:09.031Z,58.93
2023-02-05T22:38:10.724Z,61.50
2023-02-05T22:43:12.951Z,61.07
2023-02-05T22:48:14.667Z,74.00
2023-02-05T22:53:19.762Z,64.90
2023-02-05T22:58:26.668Z,62.77
2023-02-05T23:03:29.144Z,54.10
2023-02-05T23:08:35.611Z,58.60
2023-02-05T23:13:37.363Z,58.00
2023-02-05T23:18:43.762Z,68.97
2023-02-05T23:23:50.618Z,73.93
2023-02-05T23:28:58.602Z,64.03
2023-02-05T23:34:00.589Z,49.90
2023-02-05T23:39:02.679Z,60.60
2023-02-05T23:44:23.127Z,66.30
2023-02-05T23:49:25.130Z,58.20
2023-02-05T23:54:26.854Z,53.90
2023-02-05T23:59:30.798Z,54.93
